sensor_id;sensor_type;location;lat;lon;timestamp;temperature;humidity
12329;DHT22;6230;52.390;10.256;2023-07-30T00:00:52;21.90;58.50
12329;DHT22;6230;52.390;10.256;2023-07-30T00:03:18;21.90;58.50
12329;DHT22;6230;52.390;10.256;2023-07-30T00:05:54;21.90;58.60
12329;DHT22;6230;52.390;10.256;2023-07-30T00:08:19;21.80;58.60
12329;DHT22;6230;52.390;10.256;2023-07-30T00:10:45;21.80;58.60
12329;DHT22;6230;52.390;10.256;2023-07-30T00:13:11;21.80;58.70
12329;DHT22;6230;52.390;10.256;2023-07-30T00:15:36;21.80;58.70
12329;DHT22;6230;52.390;10.256;2023-07-30T00:18:02;21.80;58.70
12329;DHT22;6230;52.390;10.256;2023-07-30T00:20:27;21.80;58.70
12329;DHT22;6230;52.390;10.256;2023-07-30T00:22:53;21.80;58.80
12329;DHT22;6230;52.390;10.256;2023-07-30T00:25:18;21.80;58.70
12329;DHT22;6230;52.390;10.256;2023-07-30T00:27:44;21.80;58.70
12329;DHT22;6230;52.390;10.256;2023-07-30T00:30:10;21.90;58.70
12329;DHT22;6230;52.390;10.256;2023-07-30T00:32:35;21.90;58.80
12329;DHT22;6230;52.390;10.256;2023-07-30T00:35:01;21.90;58.80
12329;DHT22;6230;52.390;10.256;2023-07-30T00:37:27;21.90;58.80
12329;DHT22;6230;52.390;10.256;2023-07-30T00:39:52;21.90;58.80
12329;DHT22;6230;52.390;10.256;2023-07-30T00:42:18;21.90;58.70
12329;DHT22;6230;52.390;10.256;2023-07-30T00:44:43;21.90;58.80
12329;DHT22;6230;52.390;10.256;2023-07-30T00:47:09;21.90;58.70
12329;DHT22;6230;52.390;10.256;2023-07-30T00:49:34;21.90;58.70
12329;DHT22;6230;52.390;10.256;2023-07-30T00:52:00;22.00;58.70
12329;DHT22;6230;52.390;10.256;2023-07-30T00:54:26;22.00;58.70
12329;DHT22;6230;52.390;10.256;2023-07-30T00:56:52;22.00;58.70
12329;DHT22;6230;52.390;10.256;2023-07-30T00:59:20;21.90;58.70
12329;DHT22;6230;52.390;10.256;2023-07-30T01:01:46;21.90;58.70
12329;DHT22;6230;52.390;10.256;2023-07-30T01:04:13;21.90;58.80
12329;DHT22;6230;52.390;10.256;2023-07-30T01:06:39;21.90;58.80
12329;DHT22;6230;52.390;10.256;2023-07-30T01:09:05;21.80;58.80
12329;DHT22;6230;52.390;10.256;2023-07-30T01:11:30;21.80;58.80
12329;DHT22;6230;52.390;10.256;2023-07-30T01:13:56;21.70;58.90
12329;DHT22;6230;52.390;10.256;2023-07-30T01:16:22;21.70;59.00
12329;DHT22;6230;52.390;10.256;2023-07-30T01:18:48;21.60;59.00
12329;DHT22;6230;52.390;10.256;2023-07-30T01:21:14;21.60;59.10
12329;DHT22;6230;52.390;10.256;2023-07-30T01:23:39;21.60;59.20
12329;DHT22;6230;52.390;10.256;2023-07-30T01:26:10;21.50;59.20
12329;DHT22;6230;52.390;10.256;2023-07-30T01:28:50;21.50;59.30
12329;DHT22;6230;52.390;10.256;2023-07-30T01:31:18;21.40;59.40
12329;DHT22;6230;52.390;10.256;2023-07-30T01:33:47;21.40;59.50
12329;DHT22;6230;52.390;10.256;2023-07-30T01:36:15;21.40;59.50
12329;DHT22;6230;52.390;10.256;2023-07-30T01:38:42;21.40;59.60
12329;DHT22;6230;52.390;10.256;2023-07-30T01:41:09;21.40;59.60
12329;DHT22;6230;52.390;10.256;2023-07-30T01:43:34;21.40;59.60
12329;DHT22;6230;52.390;10.256;2023-07-30T01:46:00;21.40;59.70
12329;DHT22;6230;52.390;10.256;2023-07-30T01:48:26;21.40;59.70
12329;DHT22;6230;52.390;10.256;2023-07-30T01:50:51;21.40;59.70
12329;DHT22;6230;52.390;10.256;2023-07-30T01:53:17;21.40;59.80
12329;DHT22;6230;52.390;10.256;2023-07-30T01:55:42;21.40;59.80
12329;DHT22;6230;52.390;10.256;2023-07-30T01:58:09;21.50;59.90
12329;DHT22;6230;52.390;10.256;2023-07-30T02:00:35;21.50;59.80
12329;DHT22;6230;52.390;10.256;2023-07-30T02:03:01;21.50;60.00
12329;DHT22;6230;52.390;10.256;2023-07-30T02:05:26;21.50;60.00
12329;DHT22;6230;52.390;10.256;2023-07-30T02:07:52;21.50;60.00
12329;DHT22;6230;52.390;10.256;2023-07-30T02:10:17;21.50;60.00
12329;DHT22;6230;52.390;10.256;2023-07-30T02:12:43;21.50;60.10
12329;DHT22;6230;52.390;10.256;2023-07-30T02:15:08;21.50;60.10
12329;DHT22;6230;52.390;10.256;2023-07-30T02:17:34;21.50;60.10
12329;DHT22;6230;52.390;10.256;2023-07-30T02:20:00;21.50;60.30
12329;DHT22;6230;52.390;10.256;2023-07-30T02:22:25;21.50;60.50
12329;DHT22;6230;52.390;10.256;2023-07-30T02:24:51;21.50;60.40
12329;DHT22;6230;52.390;10.256;2023-07-30T02:27:16;21.50;60.40
12329;DHT22;6230;52.390;10.256;2023-07-30T02:29:42;21.50;60.40
12329;DHT22;6230;52.390;10.256;2023-07-30T02:32:08;21.50;60.30
12329;DHT22;6230;52.390;10.256;2023-07-30T02:34:34;21.50;60.40
12329;DHT22;6230;52.390;10.256;2023-07-30T02:36:59;21.50;61.20
12329;DHT22;6230;52.390;10.256;2023-07-30T02:39:25;21.50;60.60
12329;DHT22;6230;52.390;10.256;2023-07-30T02:41:50;21.50;60.50
12329;DHT22;6230;52.390;10.256;2023-07-30T02:44:16;21.50;60.50
12329;DHT22;6230;52.390;10.256;2023-07-30T02:46:41;21.50;60.60
12329;DHT22;6230;52.390;10.256;2023-07-30T02:49:07;21.40;60.50
12329;DHT22;6230;52.390;10.256;2023-07-30T02:51:34;21.40;60.60
12329;DHT22;6230;52.390;10.256;2023-07-30T02:54:04;21.40;60.60
12329;DHT22;6230;52.390;10.256;2023-07-30T02:56:30;21.40;60.70
12329;DHT22;6230;52.390;10.256;2023-07-30T02:58:56;21.30;60.70
12329;DHT22;6230;52.390;10.256;2023-07-30T03:01:21;21.30;60.70
12329;DHT22;6230;52.390;10.256;2023-07-30T03:03:47;21.30;60.70
12329;DHT22;6230;52.390;10.256;2023-07-30T03:06:13;21.20;60.70
12329;DHT22;6230;52.390;10.256;2023-07-30T03:08:39;21.20;60.70
12329;DHT22;6230;52.390;10.256;2023-07-30T03:11:05;21.20;60.70
12329;DHT22;6230;52.390;10.256;2023-07-30T03:13:30;21.20;60.80
12329;DHT22;6230;52.390;10.256;2023-07-30T03:15:56;21.10;60.70
12329;DHT22;6230;52.390;10.256;2023-07-30T03:18:21;21.10;60.80
12329;DHT22;6230;52.390;10.256;2023-07-30T03:20:47;21.00;60.90
12329;DHT22;6230;52.390;10.256;2023-07-30T03:23:12;21.00;61.10
12329;DHT22;6230;52.390;10.256;2023-07-30T03:25:38;21.00;61.10
12329;DHT22;6230;52.390;10.256;2023-07-30T03:28:03;20.90;61.20
12329;DHT22;6230;52.390;10.256;2023-07-30T03:30:29;20.90;61.30
12329;DHT22;6230;52.390;10.256;2023-07-30T03:32:55;20.90;61.30
12329;DHT22;6230;52.390;10.256;2023-07-30T03:35:20;20.80;61.10
12329;DHT22;6230;52.390;10.256;2023-07-30T03:37:46;20.80;61.20
12329;DHT22;6230;52.390;10.256;2023-07-30T03:40:11;20.80;61.20
12329;DHT22;6230;52.390;10.256;2023-07-30T03:42:37;20.80;61.20
12329;DHT22;6230;52.390;10.256;2023-07-30T03:45:03;20.80;61.20
12329;DHT22;6230;52.390;10.256;2023-07-30T03:47:28;20.70;61.30
12329;DHT22;6230;52.390;10.256;2023-07-30T03:49:54;20.70;61.30
12329;DHT22;6230;52.390;10.256;2023-07-30T03:52:19;20.70;61.30
12329;DHT22;6230;52.390;10.256;2023-07-30T03:54:45;20.70;61.30
12329;DHT22;6230;52.390;10.256;2023-07-30T03:57:10;20.70;61.30
12329;DHT22;6230;52.390;10.256;2023-07-30T03:59:36;20.70;61.30
12329;DHT22;6230;52.390;10.256;2023-07-30T04:02:01;20.60;61.30
12329;DHT22;6230;52.390;10.256;2023-07-30T04:04:27;20.60;61.40
12329;DHT22;6230;52.390;10.256;2023-07-30T04:06:53;20.60;61.40
12329;DHT22;6230;52.390;10.256;2023-07-30T04:09:18;20.60;61.40
12329;DHT22;6230;52.390;10.256;2023-07-30T04:11:44;20.60;61.40
12329;DHT22;6230;52.390;10.256;2023-07-30T04:14:09;20.60;61.30
12329;DHT22;6230;52.390;10.256;2023-07-30T04:16:35;20.60;61.30
12329;DHT22;6230;52.390;10.256;2023-07-30T04:19:00;20.50;61.20
12329;DHT22;6230;52.390;10.256;2023-07-30T04:21:26;20.50;61.30
12329;DHT22;6230;52.390;10.256;2023-07-30T04:23:51;20.60;61.50
12329;DHT22;6230;52.390;10.256;2023-07-30T04:26:17;20.50;61.50
12329;DHT22;6230;52.390;10.256;2023-07-30T04:28:43;20.50;61.60
12329;DHT22;6230;52.390;10.256;2023-07-30T04:31:08;20.50;61.70
12329;DHT22;6230;52.390;10.256;2023-07-30T04:33:34;20.50;61.60
12329;DHT22;6230;52.390;10.256;2023-07-30T04:35:59;20.50;61.50
12329;DHT22;6230;52.390;10.256;2023-07-30T04:38:25;20.50;61.40
12329;DHT22;6230;52.390;10.256;2023-07-30T04:40:51;20.50;61.40
12329;DHT22;6230;52.390;10.256;2023-07-30T04:43:16;20.50;61.30
12329;DHT22;6230;52.390;10.256;2023-07-30T04:45:42;20.60;61.40
12329;DHT22;6230;52.390;10.256;2023-07-30T04:48:08;20.60;61.40
12329;DHT22;6230;52.390;10.256;2023-07-30T04:50:34;20.60;61.30
12329;DHT22;6230;52.390;10.256;2023-07-30T04:53:00;20.60;61.30
12329;DHT22;6230;52.390;10.256;2023-07-30T04:55:26;20.60;61.30
12329;DHT22;6230;52.390;10.256;2023-07-30T04:57:51;20.70;61.30
12329;DHT22;6230;52.390;10.256;2023-07-30T05:00:17;20.70;61.20
12329;DHT22;6230;52.390;10.256;2023-07-30T05:02:42;20.80;61.10
12329;DHT22;6230;52.390;10.256;2023-07-30T05:05:08;20.80;61.20
12329;DHT22;6230;52.390;10.256;2023-07-30T05:07:34;20.80;61.20
12329;DHT22;6230;52.390;10.256;2023-07-30T05:09:59;20.80;61.10
12329;DHT22;6230;52.390;10.256;2023-07-30T05:12:25;20.80;61.10
12329;DHT22;6230;52.390;10.256;2023-07-30T05:14:50;20.90;61.30
12329;DHT22;6230;52.390;10.256;2023-07-30T05:17:16;20.90;61.30
12329;DHT22;6230;52.390;10.256;2023-07-30T05:19:41;20.90;61.40
12329;DHT22;6230;52.390;10.256;2023-07-30T05:22:07;20.90;61.30
12329;DHT22;6230;52.390;10.256;2023-07-30T05:24:33;21.00;61.30
12329;DHT22;6230;52.390;10.256;2023-07-30T05:26:59;21.00;61.30
12329;DHT22;6230;52.390;10.256;2023-07-30T05:29:24;21.00;61.30
12329;DHT22;6230;52.390;10.256;2023-07-30T05:31:50;21.10;61.30
12329;DHT22;6230;52.390;10.256;2023-07-30T05:34:15;21.10;61.20
12329;DHT22;6230;52.390;10.256;2023-07-30T05:36:41;21.10;61.20
12329;DHT22;6230;52.390;10.256;2023-07-30T05:39:06;21.20;61.40
12329;DHT22;6230;52.390;10.256;2023-07-30T05:41:32;21.20;61.40
12329;DHT22;6230;52.390;10.256;2023-07-30T05:43:57;21.20;61.50
12329;DHT22;6230;52.390;10.256;2023-07-30T05:46:23;21.20;61.60
12329;DHT22;6230;52.390;10.256;2023-07-30T05:48:48;21.20;61.60
12329;DHT22;6230;52.390;10.256;2023-07-30T05:51:14;21.20;61.70
12329;DHT22;6230;52.390;10.256;2023-07-30T05:53:39;21.20;61.80
12329;DHT22;6230;52.390;10.256;2023-07-30T05:56:05;21.20;61.80
12329;DHT22;6230;52.390;10.256;2023-07-30T05:58:31;21.20;61.90
12329;DHT22;6230;52.390;10.256;2023-07-30T06:00:56;21.30;62.00
12329;DHT22;6230;52.390;10.256;2023-07-30T06:03:22;21.30;62.00
12329;DHT22;6230;52.390;10.256;2023-07-30T06:05:47;21.30;62.10
12329;DHT22;6230;52.390;10.256;2023-07-30T06:08:13;21.30;62.20
12329;DHT22;6230;52.390;10.256;2023-07-30T06:10:39;21.40;62.20
12329;DHT22;6230;52.390;10.256;2023-07-30T06:13:06;21.40;62.30
12329;DHT22;6230;52.390;10.256;2023-07-30T06:15:32;21.40;62.30
12329;DHT22;6230;52.390;10.256;2023-07-30T06:17:58;21.40;62.30
12329;DHT22;6230;52.390;10.256;2023-07-30T06:20:24;21.50;62.30
12329;DHT22;6230;52.390;10.256;2023-07-30T06:22:50;21.50;62.30
12329;DHT22;6230;52.390;10.256;2023-07-30T06:25:15;21.50;62.30
12329;DHT22;6230;52.390;10.256;2023-07-30T06:27:41;21.50;62.30
12329;DHT22;6230;52.390;10.256;2023-07-30T06:30:07;21.50;62.40
12329;DHT22;6230;52.390;10.256;2023-07-30T06:32:32;21.40;62.40
12329;DHT22;6230;52.390;10.256;2023-07-30T06:34:58;21.40;63.20
12329;DHT22;6230;52.390;10.256;2023-07-30T06:37:23;21.40;62.40
12329;DHT22;6230;52.390;10.256;2023-07-30T06:39:49;21.50;62.40
12329;DHT22;6230;52.390;10.256;2023-07-30T06:42:14;21.50;63.10
12329;DHT22;6230;52.390;10.256;2023-07-30T06:44:40;21.60;62.30
12329;DHT22;6230;52.390;10.256;2023-07-30T06:47:06;21.60;62.30
12329;DHT22;6230;52.390;10.256;2023-07-30T06:49:31;21.70;62.40
12329;DHT22;6230;52.390;10.256;2023-07-30T06:51:59;21.70;62.20
12329;DHT22;6230;52.390;10.256;2023-07-30T06:54:25;21.70;62.30
12329;DHT22;6230;52.390;10.256;2023-07-30T06:56:50;21.80;62.40
12329;DHT22;6230;52.390;10.256;2023-07-30T06:59:16;21.90;62.30
12329;DHT22;6230;52.390;10.256;2023-07-30T07:01:41;21.90;62.20
12329;DHT22;6230;52.390;10.256;2023-07-30T07:04:07;22.00;62.10
12329;DHT22;6230;52.390;10.256;2023-07-30T07:06:32;22.00;62.00
12329;DHT22;6230;52.390;10.256;2023-07-30T07:08:58;22.10;62.10
12329;DHT22;6230;52.390;10.256;2023-07-30T07:11:23;22.20;62.00
12329;DHT22;6230;52.390;10.256;2023-07-30T07:13:49;22.30;61.90
12329;DHT22;6230;52.390;10.256;2023-07-30T07:16:14;22.30;61.80
12329;DHT22;6230;52.390;10.256;2023-07-30T07:18:40;22.30;61.70
12329;DHT22;6230;52.390;10.256;2023-07-30T07:21:05;22.40;61.70
12329;DHT22;6230;52.390;10.256;2023-07-30T07:23:31;22.40;61.40
12329;DHT22;6230;52.390;10.256;2023-07-30T07:25:57;22.40;61.40
12329;DHT22;6230;52.390;10.256;2023-07-30T07:28:23;22.50;61.40
12329;DHT22;6230;52.390;10.256;2023-07-30T07:30:48;22.50;61.20
12329;DHT22;6230;52.390;10.256;2023-07-30T07:33:13;22.50;60.80
12329;DHT22;6230;52.390;10.256;2023-07-30T07:35:40;22.60;60.70
12329;DHT22;6230;52.390;10.256;2023-07-30T07:38:05;22.60;60.20
12329;DHT22;6230;52.390;10.256;2023-07-30T07:40:36;22.60;60.30
12329;DHT22;6230;52.390;10.256;2023-07-30T07:43:04;22.60;60.40
12329;DHT22;6230;52.390;10.256;2023-07-30T07:45:30;22.70;60.20
12329;DHT22;6230;52.390;10.256;2023-07-30T07:47:55;22.70;60.10
12329;DHT22;6230;52.390;10.256;2023-07-30T07:50:21;22.80;59.60
12329;DHT22;6230;52.390;10.256;2023-07-30T07:52:46;22.80;59.60
12329;DHT22;6230;52.390;10.256;2023-07-30T07:55:12;22.90;59.40
12329;DHT22;6230;52.390;10.256;2023-07-30T07:57:37;22.90;59.20
12329;DHT22;6230;52.390;10.256;2023-07-30T08:00:03;22.90;59.20
12329;DHT22;6230;52.390;10.256;2023-07-30T08:02:30;22.80;58.90
12329;DHT22;6230;52.390;10.256;2023-07-30T08:04:56;22.90;59.00
12329;DHT22;6230;52.390;10.256;2023-07-30T08:07:21;22.90;58.90
12329;DHT22;6230;52.390;10.256;2023-07-30T08:09:47;22.90;58.80
12329;DHT22;6230;52.390;10.256;2023-07-30T08:12:13;22.90;58.90
12329;DHT22;6230;52.390;10.256;2023-07-30T08:14:39;23.10;59.00
12329;DHT22;6230;52.390;10.256;2023-07-30T08:17:05;23.10;58.80
12329;DHT22;6230;52.390;10.256;2023-07-30T08:19:30;23.20;58.70
12329;DHT22;6230;52.390;10.256;2023-07-30T08:21:57;23.30;58.50
12329;DHT22;6230;52.390;10.256;2023-07-30T08:24:23;23.30;58.50
12329;DHT22;6230;52.390;10.256;2023-07-30T08:26:49;23.30;58.50
12329;DHT22;6230;52.390;10.256;2023-07-30T08:29:14;23.40;58.20
12329;DHT22;6230;52.390;10.256;2023-07-30T08:31:40;23.40;58.00
12329;DHT22;6230;52.390;10.256;2023-07-30T08:34:06;23.40;58.00
12329;DHT22;6230;52.390;10.256;2023-07-30T08:36:32;23.40;57.80
12329;DHT22;6230;52.390;10.256;2023-07-30T08:38:58;23.50;57.90
12329;DHT22;6230;52.390;10.256;2023-07-30T08:41:23;23.60;57.80
12329;DHT22;6230;52.390;10.256;2023-07-30T08:43:50;23.70;57.80
12329;DHT22;6230;52.390;10.256;2023-07-30T08:46:17;23.80;57.80
12329;DHT22;6230;52.390;10.256;2023-07-30T08:48:43;24.00;57.50
12329;DHT22;6230;52.390;10.256;2023-07-30T08:51:08;24.00;57.30
12329;DHT22;6230;52.390;10.256;2023-07-30T08:53:35;24.00;57.20
12329;DHT22;6230;52.390;10.256;2023-07-30T08:56:01;24.10;56.90
12329;DHT22;6230;52.390;10.256;2023-07-30T08:58:27;24.10;56.90
12329;DHT22;6230;52.390;10.256;2023-07-30T09:00:55;24.20;56.90
12329;DHT22;6230;52.390;10.256;2023-07-30T09:03:22;24.30;56.90
12329;DHT22;6230;52.390;10.256;2023-07-30T09:05:48;24.40;56.70
12329;DHT22;6230;52.390;10.256;2023-07-30T09:08:14;24.50;56.70
12329;DHT22;6230;52.390;10.256;2023-07-30T09:10:40;24.50;56.60
12329;DHT22;6230;52.390;10.256;2023-07-30T09:13:05;24.60;56.50
12329;DHT22;6230;52.390;10.256;2023-07-30T09:15:33;24.60;56.40
12329;DHT22;6230;52.390;10.256;2023-07-30T09:18:00;24.70;56.10
12329;DHT22;6230;52.390;10.256;2023-07-30T09:20:26;24.70;55.70
12329;DHT22;6230;52.390;10.256;2023-07-30T09:22:56;24.70;55.40
12329;DHT22;6230;52.390;10.256;2023-07-30T09:25:22;24.70;55.50
12329;DHT22;6230;52.390;10.256;2023-07-30T09:27:50;24.70;55.40
12329;DHT22;6230;52.390;10.256;2023-07-30T09:30:22;24.80;55.30
12329;DHT22;6230;52.390;10.256;2023-07-30T09:32:51;24.80;55.20
12329;DHT22;6230;52.390;10.256;2023-07-30T09:35:17;24.80;55.20
12329;DHT22;6230;52.390;10.256;2023-07-30T09:37:43;24.90;55.20
12329;DHT22;6230;52.390;10.256;2023-07-30T09:40:13;24.90;55.10
12329;DHT22;6230;52.390;10.256;2023-07-30T09:42:44;25.00;55.00
12329;DHT22;6230;52.390;10.256;2023-07-30T09:45:23;25.10;55.10
12329;DHT22;6230;52.390;10.256;2023-07-30T09:47:50;25.30;55.10
12329;DHT22;6230;52.390;10.256;2023-07-30T09:50:16;25.40;54.80
12329;DHT22;6230;52.390;10.256;2023-07-30T09:52:42;25.50;54.70
12329;DHT22;6230;52.390;10.256;2023-07-30T09:55:09;25.50;54.10
12329;DHT22;6230;52.390;10.256;2023-07-30T09:57:35;25.50;54.40
12329;DHT22;6230;52.390;10.256;2023-07-30T10:00:02;25.50;54.30
12329;DHT22;6230;52.390;10.256;2023-07-30T10:02:29;25.50;54.30
12329;DHT22;6230;52.390;10.256;2023-07-30T10:04:57;25.50;54.10
12329;DHT22;6230;52.390;10.256;2023-07-30T10:07:25;25.50;54.10
12329;DHT22;6230;52.390;10.256;2023-07-30T10:09:53;25.50;54.20
12329;DHT22;6230;52.390;10.256;2023-07-30T10:12:25;25.50;54.30
12329;DHT22;6230;52.390;10.256;2023-07-30T10:14:52;25.60;54.40
12329;DHT22;6230;52.390;10.256;2023-07-30T10:17:18;25.60;54.20
12329;DHT22;6230;52.390;10.256;2023-07-30T10:19:48;25.60;53.90
12329;DHT22;6230;52.390;10.256;2023-07-30T10:22:23;25.50;53.90
12329;DHT22;6230;52.390;10.256;2023-07-30T10:25:00;25.40;53.80
12329;DHT22;6230;52.390;10.256;2023-07-30T10:27:37;25.30;53.90
12329;DHT22;6230;52.390;10.256;2023-07-30T10:30:13;25.30;53.90
12329;DHT22;6230;52.390;10.256;2023-07-30T10:35:35;25.10;53.90
12329;DHT22;6230;52.390;10.256;2023-07-30T10:38:15;25.00;53.70
12329;DHT22;6230;52.390;10.256;2023-07-30T10:40:41;24.90;53.80
12329;DHT22;6230;52.390;10.256;2023-07-30T10:43:31;24.70;54.00
12329;DHT22;6230;52.390;10.256;2023-07-30T10:45:58;24.70;54.20
12329;DHT22;6230;52.390;10.256;2023-07-30T10:48:35;24.70;54.10
12329;DHT22;6230;52.390;10.256;2023-07-30T10:51:03;24.60;54.20
12329;DHT22;6230;52.390;10.256;2023-07-30T10:53:29;24.50;54.20
12329;DHT22;6230;52.390;10.256;2023-07-30T10:55:58;24.50;54.10
12329;DHT22;6230;52.390;10.256;2023-07-30T10:58:26;24.40;54.10
12329;DHT22;6230;52.390;10.256;2023-07-30T11:00:52;24.30;54.20
12329;DHT22;6230;52.390;10.256;2023-07-30T11:03:18;24.20;54.20
12329;DHT22;6230;52.390;10.256;2023-07-30T11:05:47;24.20;54.20
12329;DHT22;6230;52.390;10.256;2023-07-30T11:08:13;24.20;54.30
12329;DHT22;6230;52.390;10.256;2023-07-30T11:10:46;24.20;54.30
12329;DHT22;6230;52.390;10.256;2023-07-30T11:13:14;24.10;54.40
12329;DHT22;6230;52.390;10.256;2023-07-30T11:15:41;24.20;54.50
12329;DHT22;6230;52.390;10.256;2023-07-30T11:18:08;24.20;54.50
12329;DHT22;6230;52.390;10.256;2023-07-30T11:20:33;24.30;54.60
12329;DHT22;6230;52.390;10.256;2023-07-30T11:22:59;24.30;54.60
12329;DHT22;6230;52.390;10.256;2023-07-30T11:25:25;24.40;54.50
12329;DHT22;6230;52.390;10.256;2023-07-30T11:27:51;24.40;54.60
12329;DHT22;6230;52.390;10.256;2023-07-30T11:30:17;24.50;54.50
12329;DHT22;6230;52.390;10.256;2023-07-30T11:32:43;24.40;54.40
12329;DHT22;6230;52.390;10.256;2023-07-30T11:35:12;24.40;54.50
12329;DHT22;6230;52.390;10.256;2023-07-30T11:37:40;24.50;54.60
12329;DHT22;6230;52.390;10.256;2023-07-30T11:40:09;24.50;54.40
12329;DHT22;6230;52.390;10.256;2023-07-30T11:42:36;24.50;54.40
12329;DHT22;6230;52.390;10.256;2023-07-30T11:45:18;24.50;54.30
12329;DHT22;6230;52.390;10.256;2023-07-30T11:47:45;24.50;54.30
12329;DHT22;6230;52.390;10.256;2023-07-30T11:50:10;24.50;54.30
12329;DHT22;6230;52.390;10.256;2023-07-30T11:52:36;24.50;54.30
12329;DHT22;6230;52.390;10.256;2023-07-30T11:55:05;24.50;54.30
12329;DHT22;6230;52.390;10.256;2023-07-30T11:57:36;24.40;54.30
12329;DHT22;6230;52.390;10.256;2023-07-30T12:00:02;24.40;54.50
12329;DHT22;6230;52.390;10.256;2023-07-30T12:02:30;24.40;54.50
12329;DHT22;6230;52.390;10.256;2023-07-30T12:04:56;24.50;54.60
12329;DHT22;6230;52.390;10.256;2023-07-30T12:07:25;24.60;54.60
12329;DHT22;6230;52.390;10.256;2023-07-30T12:09:51;24.70;54.50
12329;DHT22;6230;52.390;10.256;2023-07-30T12:12:16;24.90;54.40
12329;DHT22;6230;52.390;10.256;2023-07-30T12:14:44;25.00;54.20
12329;DHT22;6230;52.390;10.256;2023-07-30T12:17:17;25.10;54.40
12329;DHT22;6230;52.390;10.256;2023-07-30T12:19:43;25.20;54.00
12329;DHT22;6230;52.390;10.256;2023-07-30T12:22:08;25.40;54.10
12329;DHT22;6230;52.390;10.256;2023-07-30T12:24:34;25.50;53.90
12329;DHT22;6230;52.390;10.256;2023-07-30T12:26:59;25.60;53.80
12329;DHT22;6230;52.390;10.256;2023-07-30T12:29:26;25.70;53.70
12329;DHT22;6230;52.390;10.256;2023-07-30T12:31:51;25.70;53.60
12329;DHT22;6230;52.390;10.256;2023-07-30T12:34:19;25.80;53.40
12329;DHT22;6230;52.390;10.256;2023-07-30T12:36:45;25.80;53.30
12329;DHT22;6230;52.390;10.256;2023-07-30T12:39:11;25.90;53.50
12329;DHT22;6230;52.390;10.256;2023-07-30T12:41:36;25.90;53.30
12329;DHT22;6230;52.390;10.256;2023-07-30T12:44:02;26.00;53.10
12329;DHT22;6230;52.390;10.256;2023-07-30T12:46:30;25.90;52.90
12329;DHT22;6230;52.390;10.256;2023-07-30T12:48:57;25.80;52.90
12329;DHT22;6230;52.390;10.256;2023-07-30T12:51:23;25.80;53.10
12329;DHT22;6230;52.390;10.256;2023-07-30T12:53:48;25.80;53.00
12329;DHT22;6230;52.390;10.256;2023-07-30T12:56:15;25.80;53.00
12329;DHT22;6230;52.390;10.256;2023-07-30T12:58:41;25.80;53.10
12329;DHT22;6230;52.390;10.256;2023-07-30T13:01:07;25.90;53.20
12329;DHT22;6230;52.390;10.256;2023-07-30T13:03:32;25.90;52.90
12329;DHT22;6230;52.390;10.256;2023-07-30T13:05:58;25.90;52.60
12329;DHT22;6230;52.390;10.256;2023-07-30T13:08:24;25.90;52.70
12329;DHT22;6230;52.390;10.256;2023-07-30T13:10:49;25.90;52.70
12329;DHT22;6230;52.390;10.256;2023-07-30T13:13:15;25.80;52.60
12329;DHT22;6230;52.390;10.256;2023-07-30T13:15:40;25.80;52.60
12329;DHT22;6230;52.390;10.256;2023-07-30T13:18:06;25.90;52.80
12329;DHT22;6230;52.390;10.256;2023-07-30T13:20:31;25.90;52.60
12329;DHT22;6230;52.390;10.256;2023-07-30T13:22:57;26.00;52.50
12329;DHT22;6230;52.390;10.256;2023-07-30T13:25:23;26.20;52.40
12329;DHT22;6230;52.390;10.256;2023-07-30T13:27:49;26.20;52.00
12329;DHT22;6230;52.390;10.256;2023-07-30T13:30:15;26.40;52.10
12329;DHT22;6230;52.390;10.256;2023-07-30T13:32:40;26.50;51.70
12329;DHT22;6230;52.390;10.256;2023-07-30T13:35:06;26.60;51.20
12329;DHT22;6230;52.390;10.256;2023-07-30T13:37:32;26.60;51.20
12329;DHT22;6230;52.390;10.256;2023-07-30T13:39:57;26.50;51.40
12329;DHT22;6230;52.390;10.256;2023-07-30T13:42:23;26.50;51.60
12329;DHT22;6230;52.390;10.256;2023-07-30T13:44:48;26.60;51.60
12329;DHT22;6230;52.390;10.256;2023-07-30T13:47:14;26.60;51.40
12329;DHT22;6230;52.390;10.256;2023-07-30T13:49:39;26.70;50.90
12329;DHT22;6230;52.390;10.256;2023-07-30T13:52:05;26.70;50.70
12329;DHT22;6230;52.390;10.256;2023-07-30T13:54:31;26.80;50.30
12329;DHT22;6230;52.390;10.256;2023-07-30T13:56:57;26.80;50.30
12329;DHT22;6230;52.390;10.256;2023-07-30T13:59:22;26.80;50.40
12329;DHT22;6230;52.390;10.256;2023-07-30T14:01:48;26.90;50.20
12329;DHT22;6230;52.390;10.256;2023-07-30T14:04:13;27.00;50.00
12329;DHT22;6230;52.390;10.256;2023-07-30T14:06:39;27.10;49.80
12329;DHT22;6230;52.390;10.256;2023-07-30T14:09:04;27.00;49.90
12329;DHT22;6230;52.390;10.256;2023-07-30T14:11:30;27.10;49.60
12329;DHT22;6230;52.390;10.256;2023-07-30T14:13:55;27.00;49.20
12329;DHT22;6230;52.390;10.256;2023-07-30T14:16:21;26.80;49.30
12329;DHT22;6230;52.390;10.256;2023-07-30T14:18:47;26.70;49.60
12329;DHT22;6230;52.390;10.256;2023-07-30T14:21:13;26.70;49.80
12329;DHT22;6230;52.390;10.256;2023-07-30T14:23:38;26.70;49.80
12329;DHT22;6230;52.390;10.256;2023-07-30T14:26:04;26.70;49.80
12329;DHT22;6230;52.390;10.256;2023-07-30T14:28:30;26.70;50.00
12329;DHT22;6230;52.390;10.256;2023-07-30T14:30:55;26.70;49.80
12329;DHT22;6230;52.390;10.256;2023-07-30T14:33:21;26.60;49.80
12329;DHT22;6230;52.390;10.256;2023-07-30T14:35:46;26.50;50.70
12329;DHT22;6230;52.390;10.256;2023-07-30T14:38:12;26.50;50.10
12329;DHT22;6230;52.390;10.256;2023-07-30T14:40:38;26.40;50.20
12329;DHT22;6230;52.390;10.256;2023-07-30T14:43:03;26.50;50.00
12329;DHT22;6230;52.390;10.256;2023-07-30T14:45:29;26.50;50.10
12329;DHT22;6230;52.390;10.256;2023-07-30T14:47:55;26.50;50.20
12329;DHT22;6230;52.390;10.256;2023-07-30T14:50:20;26.50;49.90
12329;DHT22;6230;52.390;10.256;2023-07-30T14:52:46;26.50;49.60
12329;DHT22;6230;52.390;10.256;2023-07-30T14:55:11;26.40;49.40
12329;DHT22;6230;52.390;10.256;2023-07-30T14:57:37;26.30;49.40
12329;DHT22;6230;52.390;10.256;2023-07-30T15:00:03;26.20;49.50
12329;DHT22;6230;52.390;10.256;2023-07-30T15:02:29;26.20;49.50
12329;DHT22;6230;52.390;10.256;2023-07-30T15:04:55;26.20;49.40
12329;DHT22;6230;52.390;10.256;2023-07-30T15:07:21;26.10;49.50
12329;DHT22;6230;52.390;10.256;2023-07-30T15:09:51;26.10;49.20
12329;DHT22;6230;52.390;10.256;2023-07-30T15:12:17;26.00;49.00
12329;DHT22;6230;52.390;10.256;2023-07-30T15:14:43;26.00;49.30
12329;DHT22;6230;52.390;10.256;2023-07-30T15:17:08;26.00;49.20
12329;DHT22;6230;52.390;10.256;2023-07-30T15:19:34;26.00;49.00
12329;DHT22;6230;52.390;10.256;2023-07-30T15:21:59;25.90;49.00
12329;DHT22;6230;52.390;10.256;2023-07-30T15:24:26;25.90;48.80
12329;DHT22;6230;52.390;10.256;2023-07-30T15:26:51;25.80;48.70